createdAt,value
2018-08-16T04:31:30.153Z,99.90
2018-08-16T04:33:58.418Z,99.90
2018-08-16T04:36:26.564Z,99.90
2018-08-16T04:38:54.688Z,99.90
2018-08-16T04:41:22.958Z,99.90
2018-08-16T04:43:51.063Z,99.90
2018-08-16T04:46:19.307Z,99.90
2018-08-16T04:48:47.484Z,99.90
2018-08-16T04:51:15.615Z,99.90
2018-08-16T04:53:43.753Z,99.90
2018-08-16T04:56:11.924Z,99.90
2018-08-16T04:58:40.032Z,99.90
2018-08-16T05:01:08.149Z,99.90
2018-08-16T05:03:36.272Z,99.90
2018-08-16T05:06:04.498Z,99.90
2018-08-16T05:08:32.592Z,99.90
2018-08-16T05:11:00.711Z,99.90
2018-08-16T05:13:28.917Z,99.90
2018-08-16T05:15:57.021Z,99.90
2018-08-16T05:18:25.152Z,99.90
2018-08-16T05:20:53.285Z,99.90
2018-08-16T05:23:21.452Z,99.90
2018-08-16T05:25:49.588Z,99.90
2018-08-16T05:28:17.680Z,99.90
2018-08-16T05:30:45.809Z,99.90
2018-08-16T05:33:13.967Z,99.90
2018-08-16T05:35:42.070Z,99.50
2018-08-16T05:38:10.968Z,97.90
2018-08-16T05:40:39.044Z,97.40
2018-08-16T05:43:07.273Z,95.90
2018-08-16T05:45:35.321Z,94.90
2018-08-16T05:48:03.430Z,94.30
2018-08-16T05:50:31.522Z,93.50
2018-08-16T05:52:59.670Z,92.90
2018-08-16T05:55:27.932Z,92.10
2018-08-16T05:57:56.048Z,90.80
2018-08-16T06:00:24.179Z,90.00
2018-08-16T06:02:52.321Z,88.40
2018-08-16T06:05:20.477Z,87.60
2018-08-16T06:07:48.624Z,85.40
2018-08-16T06:10:16.739Z,85.70
2018-08-16T06:12:44.833Z,83.90
2018-08-16T06:15:12.944Z,84.90
2018-08-16T06:17:41.150Z,87.90
2018-08-16T06:20:10.709Z,89.20
2018-08-16T06:22:39.280Z,88.60
2018-08-16T06:25:09.129Z,86.30
2018-08-16T06:27:37.241Z,84.10
2018-08-16T06:30:08.548Z,82.10
2018-08-16T06:32:36.668Z,82.40
2018-08-16T06:35:05.173Z,82.10
2018-08-16T06:37:33.537Z,79.20
2018-08-16T06:40:01.693Z,78.90
2018-08-16T06:42:29.801Z,77.40
2018-08-16T06:44:57.941Z,75.80
2018-08-16T15:00:52.572Z,53.20
2018-08-16T15:03:20.693Z,53.40
2018-08-16T15:05:48.808Z,52.90
2018-08-16T15:08:16.937Z,53.00
2018-08-16T15:10:45.083Z,52.60
2018-08-16T15:13:13.148Z,53.50
2018-08-16T15:15:41.258Z,53.20
2018-08-16T15:18:09.556Z,53.10
2018-08-16T15:20:37.696Z,53.80
2018-08-16T15:23:05.832Z,52.30
2018-08-16T15:25:34.120Z,52.60
2018-08-16T15:28:02.264Z,52.80
2018-08-16T15:30:30.420Z,52.50
2018-08-16T15:32:58.554Z,52.50
2018-08-16T15:35:26.652Z,51.70
2018-08-16T15:37:54.791Z,52.40
2018-08-16T15:40:23.574Z,51.80
2018-08-16T15:42:51.715Z,52.70
2018-08-16T15:45:19.833Z,52.80
2018-08-16T15:47:47.983Z,53.20
2018-08-16T15:50:16.175Z,53.40
2018-08-16T15:52:44.285Z,53.50
2018-08-16T15:55:12.423Z,53.40
2018-08-16T15:57:40.599Z,53.40
2018-08-16T16:00:11.648Z,53.20
2018-08-16T16:02:40.981Z,54.70
2018-08-16T16:05:09.212Z,54.00
2018-08-16T16:07:37.348Z,53.90
2018-08-16T16:10:05.866Z,53.60
2018-08-16T16:12:34.057Z,53.30
2018-08-16T16:15:02.211Z,53.20
2018-08-16T16:17:30.305Z,53.80
2018-08-16T16:19:58.429Z,53.70
2018-08-16T16:22:26.636Z,53.50
2018-08-16T16:24:54.839Z,54.10
2018-08-16T16:27:22.893Z,53.90
2018-08-16T16:29:51.000Z,53.50
2018-08-16T16:32:19.287Z,54.10
2018-08-16T16:34:47.389Z,54.00
2018-08-16T16:37:15.535Z,54.50
2018-08-16T16:39:43.685Z,54.70
2018-08-16T16:42:12.004Z,54.70
2018-08-16T16:44:40.206Z,54.20
2018-08-16T16:47:08.621Z,54.40
2018-08-16T16:49:36.882Z,54.10
2018-08-16T16:52:04.950Z,54.10
2018-08-16T16:54:33.064Z,54.40
2018-08-16T16:57:01.284Z,55.10
2018-08-16T16:59:29.377Z,54.40
2018-08-16T17:01:57.506Z,54.30
2018-08-16T17:04:25.631Z,54.80
2018-08-16T17:06:54.036Z,54.60
2018-08-16T17:09:22.130Z,54.80
2018-08-16T17:11:50.253Z,54.70
2018-08-16T17:14:18.391Z,55.60
2018-08-16T17:16:46.477Z,55.40
2018-08-16T17:19:14.648Z,55.80
2018-08-16T17:21:42.775Z,55.90
2018-08-16T17:24:10.906Z,55.90
2018-08-16T17:26:39.045Z,56.00
2018-08-16T17:29:07.285Z,56.50
2018-08-16T17:31:35.417Z,56.60
2018-08-16T17:34:03.565Z,56.90
2018-08-16T17:36:31.686Z,56.60
2018-08-16T17:38:59.820Z,57.20
2018-08-16T17:41:27.996Z,57.30
2018-08-16T17:43:56.114Z,57.50
2018-08-16T17:46:24.288Z,57.50
2018-08-16T17:48:55.840Z,57.40
2018-08-16T17:51:24.752Z,57.60
2018-08-16T17:53:53.009Z,57.80
2018-08-16T17:56:21.213Z,58.50
2018-08-16T17:58:49.339Z,58.10
2018-08-16T18:01:17.438Z,58.60
2018-08-16T18:03:45.604Z,59.10
2018-08-16T18:06:14.037Z,58.80
2018-08-16T18:08:42.685Z,59.10
2018-08-16T18:11:10.844Z,59.30
2018-08-16T18:13:39.150Z,59.90
2018-08-16T18:16:07.465Z,60.10
2018-08-16T18:18:35.751Z,60.60
2018-08-16T18:21:03.844Z,60.90
2018-08-16T18:23:32.042Z,61.50
2018-08-16T18:26:00.172Z,61.60
2018-08-16T18:28:28.301Z,61.90
2018-08-16T18:30:56.450Z,62.80
2018-08-16T18:33:24.624Z,62.40
2018-08-16T18:35:52.774Z,62.50
2018-08-16T18:38:20.866Z,62.90
2018-08-16T18:40:49.000Z,63.30
2018-08-16T18:43:23.889Z,63.30
2018-08-16T18:45:52.033Z,63.50
2018-08-16T18:48:20.194Z,64.10
2018-08-16T18:50:48.373Z,64.20
2018-08-16T18:53:16.502Z,64.40
2018-08-16T18:55:44.846Z,64.10
2018-08-16T18:58:12.981Z,64.50
2018-08-16T19:00:41.136Z,64.30
2018-08-16T19:03:09.521Z,64.50
2018-08-16T19:05:37.801Z,64.40
2018-08-16T19:08:05.907Z,64.80
2018-08-16T19:10:34.009Z,64.80
2018-08-16T19:13:02.618Z,64.60
2018-08-16T19:15:30.771Z,64.80
2018-08-16T19:17:59.060Z,64.60
2018-08-16T19:20:27.168Z,65.00
2018-08-16T19:22:55.315Z,64.50
2018-08-16T19:25:23.426Z,64.60
2018-08-16T19:27:51.508Z,64.90
2018-08-16T19:30:19.617Z,65.00
2018-08-16T19:32:47.744Z,65.10
2018-08-16T19:35:15.889Z,65.30
2018-08-16T19:37:43.984Z,65.30
2018-08-16T19:40:12.124Z,65.60
2018-08-16T19:42:40.331Z,65.60
2018-08-16T19:45:08.461Z,65.90
2018-08-16T19:47:36.685Z,66.40
2018-08-16T19:50:05.926Z,66.20
2018-08-16T19:52:34.042Z,66.20
2018-08-16T19:55:02.156Z,66.10
2018-08-16T19:57:30.431Z,66.00
2018-08-16T19:59:58.528Z,66.70
2018-08-16T20:02:26.632Z,66.50
2018-08-16T20:04:54.761Z,66.30
2018-08-16T20:07:22.910Z,66.30
2018-08-16T20:09:51.882Z,66.50
2018-08-16T20:12:19.963Z,67.00
2018-08-16T20:14:48.056Z,67.20
2018-08-16T20:17:16.215Z,67.40
2018-08-16T20:19:44.390Z,67.80
2018-08-16T20:22:15.464Z,68.10
2018-08-16T20:24:43.701Z,68.70
2018-08-16T20:27:11.793Z,69.30
2018-08-16T20:29:39.910Z,69.60
2018-08-16T20:32:08.009Z,69.90
2018-08-16T20:34:36.141Z,70.10
2018-08-16T20:37:04.459Z,70.80
2018-08-16T20:39:32.576Z,71.50
2018-08-16T20:42:00.746Z,72.00
2018-08-16T20:44:29.061Z,72.40
2018-08-16T20:46:57.165Z,73.20
2018-08-16T20:49:25.334Z,73.70
2018-08-16T20:51:53.444Z,74.20
2018-08-16T20:54:21.540Z,75.00
2018-08-16T20:56:49.689Z,75.10
2018-08-16T20:59:18.090Z,75.50
2018-08-16T21:01:46.210Z,76.20
2018-08-16T21:04:14.329Z,77.20
2018-08-16T21:06:42.513Z,77.10
2018-08-16T21:09:11.248Z,77.60
2018-08-16T21:11:39.941Z,78.50
2018-08-16T21:14:08.045Z,77.90
2018-08-16T21:16:36.164Z,77.30
2018-08-16T21:19:04.301Z,76.70
2018-08-16T21:21:32.469Z,76.30
2018-08-16T21:24:00.592Z,76.60
2018-08-16T21:26:28.695Z,77.30
2018-08-16T21:28:56.860Z,77.80
2018-08-16T21:31:25.020Z,78.30
2018-08-16T21:33:53.220Z,79.10
2018-08-16T21:36:21.316Z,78.20
2018-08-16T21:38:49.451Z,77.90
2018-08-16T21:41:17.540Z,78.10
2018-08-16T21:43:45.684Z,78.10
2018-08-16T21:46:13.772Z,77.90
2018-08-16T21:48:41.943Z,77.60
2018-08-16T21:51:10.025Z,77.70
2018-08-16T21:53:38.236Z,77.60
2018-08-16T21:56:06.496Z,77.60
2018-08-16T21:58:34.660Z,78.30
2018-08-16T22:01:05.613Z,77.80
2018-08-16T22:03:33.692Z,78.40
2018-08-16T22:06:03.736Z,78.60
2018-08-16T22:08:41.313Z,79.10
2018-08-16T22:11:09.577Z,78.70
2018-08-16T22:13:37.981Z,78.50
2018-08-16T22:16:06.148Z,79.40
2018-08-16T22:18:34.263Z,79.80
2018-08-16T22:21:02.536Z,80.30
2018-08-16T22:23:30.699Z,80.70
2018-08-16T22:25:58.957Z,80.70
2018-08-16T22:28:27.063Z,81.00
2018-08-16T22:30:55.181Z,81.20
2018-08-16T22:33:23.334Z,81.30
2018-08-16T22:35:51.481Z,81.60
2018-08-16T22:38:19.597Z,81.70
2018-08-16T22:40:47.768Z,82.20
2018-08-16T22:43:15.873Z,82.00
